Time;durP1;ratioP1;P1;durP2;ratioP2;P2;SDS_P1;SDS_P2;PMS_P1;PMS_P2;Temp;Humidity;BMP_temperature;BMP_pressure;BME280_temperature;BME280_humidity;BME280_pressure;Samples;Min_cycle;Max_cycle;Signal;HPM_P1;HPM_P2
2022/05/24 00:02:52;;;;;;;5.90;5.45;;;;;;;;;;10441589;28;20217;-74
2022/05/24 00:07:54;;;;;;;4.90;4.47;;;;;;;;;;10446734;28;20226;-73
2022/05/24 00:12:57;;;;;;;5.50;4.95;;;;;;;;;;10447242;28;20202;-74
2022/05/24 00:18:01;;;;;;;5.20;4.82;;;;;;;;;;10446401;28;20550;-74
2022/05/24 00:23:03;;;;;;;4.55;4.15;;;;;;;;;;10415055;28;20241;-74
2022/05/24 00:28:05;;;;;;;4.53;4.32;;;;;;;;;;10471950;28;20202;-74
2022/05/24 00:33:06;;;;;;;4.35;3.55;;;;;;;;;;10439090;28;20674;-74
2022/05/24 00:38:09;;;;;;;3.70;3.40;;;;;;;;;;10437601;28;20202;-73
2022/05/24 00:43:24;;;;;;;3.90;3.70;;;;;;;;;;10460017;28;20201;-74
2022/05/24 00:48:40;;;;;;;2.65;2.60;;;;;;;;;;10448483;28;20221;-72
2022/05/24 00:53:43;;;;;;;4.10;3.80;;;;;;;;;;10422537;28;20199;-73
2022/05/24 00:58:49;;;;;;;3.45;3.35;;;;;;;;;;10419856;28;20309;-72
2022/05/24 01:03:50;;;;;;;3.22;3.03;;;;;;;;;;10453220;28;20574;-73
2022/05/24 01:08:52;;;;;;;3.58;3.38;;;;;;;;;;10450175;28;20206;-72
2022/05/24 01:13:57;;;;;;;2.28;2.28;;;;;;;;;;10452691;28;20187;-72
2022/05/24 01:18:59;;;;;;;4.07;3.67;;;;;;;;;;10452410;28;20198;-73
2022/05/24 01:24:12;;;;;;;3.10;2.90;;;;;;;;;;10419303;28;20206;-72
2022/05/24 01:29:13;;;;;;;3.08;2.88;;;;;;;;;;10451619;28;20206;-73
2022/05/24 01:39:35;;;;;;;3.45;2.97;;;;;;;;;;10440757;28;21110;-73
2022/05/24 01:44:48;;;;;;;3.00;2.80;;;;;;;;;;10452631;28;20682;-72
2022/05/24 01:49:51;;;;;;;3.25;2.50;;;;;;;;;;10469243;28;20593;-72
2022/05/24 01:55:00;;;;;;;2.70;2.55;;;;;;;;;;10470359;28;20745;-73
2022/05/24 02:00:04;;;;;;;6.20;2.92;;;;;;;;;;10463849;28;20210;-74
2022/05/24 02:05:28;;;;;;;2.72;2.55;;;;;;;;;;10419046;28;20222;-72
2022/05/24 02:10:31;;;;;;;4.38;4.20;;;;;;;;;;10420901;28;20246;-71
2022/05/24 02:15:34;;;;;;;4.88;4.75;;;;;;;;;;10435106;28;20209;-73
2022/05/24 02:20:37;;;;;;;5.70;5.50;;;;;;;;;;10412413;28;20290;-72
2022/05/24 02:25:59;;;;;;;5.80;5.60;;;;;;;;;;10430091;28;20271;-73
2022/05/24 02:31:01;;;;;;;6.28;5.97;;;;;;;;;;10450999;28;20292;-73
2022/05/24 02:36:05;;;;;;;6.05;5.65;;;;;;;;;;10447022;28;20925;-72
2022/05/24 02:46:26;;;;;;;6.53;6.10;;;;;;;;;;10452287;28;20243;-73
2022/05/24 02:51:28;;;;;;;8.20;7.57;;;;;;;;;;10439174;28;20207;-72
2022/05/24 02:56:29;;;;;;;8.15;7.75;;;;;;;;;;10455976;28;20593;-73
2022/05/24 03:01:30;;;;;;;7.45;7.05;;;;;;;;;;10463520;28;20218;-74
2022/05/24 03:09:33;;;;;;;8.10;7.63;;;;;;;;;;10447849;28;20225;-72
2022/05/24 03:17:12;;;;;;;8.77;8.23;;;;;;;;;;10453566;28;20209;-72
2022/05/24 03:22:13;;;;;;;8.38;7.68;;;;;;;;;;10437974;28;20202;-72
2022/05/24 03:27:14;;;;;;;9.10;8.30;;;;;;;;;;10432370;28;21063;-71
2022/05/24 03:32:16;;;;;;;7.80;7.30;;;;;;;;;;10443462;28;20229;-71
2022/05/24 03:37:17;;;;;;;8.52;7.80;;;;;;;;;;10439296;28;20198;-71
2022/05/24 03:42:18;;;;;;;8.30;7.70;;;;;;;;;;10461321;28;20205;-72
2022/05/24 03:47:19;;;;;;;7.78;7.18;;;;;;;;;;10460880;28;20209;-72
2022/05/24 03:52:21;;;;;;;6.68;6.18;;;;;;;;;;10434078;28;20198;-72
2022/05/24 04:02:42;;;;;;;5.70;5.50;;;;;;;;;;10444777;28;20241;-73
2022/05/24 04:07:43;;;;;;;6.00;5.60;;;;;;;;;;10447928;28;20225;-72
2022/05/24 04:12:44;;;;;;;5.95;5.50;;;;;;;;;;10460413;28;20200;-71
2022/05/24 04:17:46;;;;;;;5.38;5.18;;;;;;;;;;10474400;28;20271;-71
2022/05/24 04:22:48;;;;;;;5.90;5.30;;;;;;;;;;10459640;28;20228;-72
2022/05/24 04:27:49;;;;;;;5.50;5.20;;;;;;;;;;10479349;28;20202;-71
2022/05/24 04:32:53;;;;;;;5.65;5.30;;;;;;;;;;10477491;28;20217;-71
2022/05/24 04:37:54;;;;;;;5.22;4.93;;;;;;;;;;10478945;28;20205;-72
2022/05/24 04:42:58;;;;;;;5.15;4.95;;;;;;;;;;10457830;28;20572;-71
2022/05/24 04:47:59;;;;;;;4.82;4.45;;;;;;;;;;10462005;28;20203;-73
2022/05/24 04:53:01;;;;;;;5.00;4.65;;;;;;;;;;10426204;28;20281;-73
2022/05/24 04:58:02;;;;;;;5.18;4.82;;;;;;;;;;10478532;28;20208;-72
2022/05/24 05:03:07;;;;;;;4.38;4.18;;;;;;;;;;10460204;28;20221;-70
2022/05/24 05:08:09;;;;;;;4.40;4.05;;;;;;;;;;10479476;28;20214;-71
2022/05/24 05:13:10;;;;;;;4.35;4.25;;;;;;;;;;10438150;28;20217;-72
2022/05/24 05:18:13;;;;;;;4.07;3.92;;;;;;;;;;10452029;28;20272;-72
2022/05/24 05:23:14;;;;;;;3.92;3.78;;;;;;;;;;10460788;28;20202;-71
2022/05/24 05:28:16;;;;;;;3.63;3.45;;;;;;;;;;10467162;28;20202;-71
2022/05/24 05:33:17;;;;;;;3.58;3.38;;;;;;;;;;10431453;28;20245;-72
2022/05/24 05:38:19;;;;;;;3.55;3.28;;;;;;;;;;10464610;28;20217;-72
2022/05/24 05:43:20;;;;;;;3.00;2.90;;;;;;;;;;10438685;28;20211;-73
2022/05/24 05:48:22;;;;;;;2.95;2.75;;;;;;;;;;10453368;28;20684;-72
2022/05/24 05:53:23;;;;;;;2.78;2.60;;;;;;;;;;10470587;28;20190;-72
2022/05/24 05:58:24;;;;;;;2.67;2.55;;;;;;;;;;10435572;28;20315;-73
2022/05/24 06:03:25;;;;;;;2.60;2.50;;;;;;;;;;10429730;28;22256;-73
2022/05/24 06:08:27;;;;;;;2.25;2.25;;;;;;;;;;10461264;28;20224;-73
2022/05/24 06:13:28;;;;;;;2.30;2.20;;;;;;;;;;10458272;28;20202;-72
2022/05/24 06:18:29;;;;;;;2.30;2.20;;;;;;;;;;10457099;28;20187;-70
2022/05/24 06:23:31;;;;;;;2.10;1.98;;;;;;;;;;10406655;28;22723;-73
2022/05/24 06:28:32;;;;;;;1.67;1.58;;;;;;;;;;10422053;28;20214;-72
2022/05/24 06:33:33;;;;;;;2.25;1.60;;;;;;;;;;10423070;28;20221;-71
2022/05/24 06:38:35;;;;;;;2.25;2.17;;;;;;;;;;10437200;28;20209;-71
2022/05/24 06:43:37;;;;;;;2.00;1.90;;;;;;;;;;10464586;28;20226;-72
2022/05/24 06:48:40;;;;;;;1.70;1.60;;;;;;;;;;10445385;28;20685;-71
2022/05/24 06:53:43;;;;;;;1.70;1.70;;;;;;;;;;10417689;28;20195;-71
2022/05/24 06:58:44;;;;;;;1.50;1.50;;;;;;;;;;10443714;28;20684;-71
2022/05/24 07:03:46;;;;;;;2.13;1.52;;;;;;;;;;10439556;28;20275;-71
2022/05/24 07:08:47;;;;;;;1.50;1.48;;;;;;;;;;10435966;28;20223;-71
2022/05/24 07:13:49;;;;;;;1.67;1.67;;;;;;;;;;10438201;28;20198;-72
2022/05/24 07:18:50;;;;;;;2.25;2.03;;;;;;;;;;10412325;28;20205;-72
2022/05/24 07:23:51;;;;;;;2.13;2.13;;;;;;;;;;10431643;28;20201;-71
2022/05/24 07:28:52;;;;;;;2.22;2.15;;;;;;;;;;10468011;28;20902;-71
2022/05/24 07:33:53;;;;;;;2.30;2.20;;;;;;;;;;10456928;28;20214;-71
2022/05/24 07:38:54;;;;;;;2.13;2.13;;;;;;;;;;10441090;28;20210;-71
2022/05/24 07:49:15;;;;;;;2.20;2.15;;;;;;;;;;10457446;28;20669;-71
2022/05/24 07:54:16;;;;;;;2.83;2.28;;;;;;;;;;10465018;28;20226;-73
2022/05/24 07:59:17;;;;;;;2.75;2.60;;;;;;;;;;10426596;28;20212;-71
2022/05/24 08:04:19;;;;;;;3.38;3.20;;;;;;;;;;10461911;28;20237;-72
2022/05/24 08:09:20;;;;;;;3.22;2.90;;;;;;;;;;10413590;28;21232;-72
2022/05/24 08:14:21;;;;;;;3.35;3.05;;;;;;;;;;10436948;28;20260;-72
2022/05/24 08:19:22;;;;;;;3.35;3.15;;;;;;;;;;10431377;28;20221;-71
2022/05/24 08:24:23;;;;;;;3.05;2.95;;;;;;;;;;10464577;28;20202;-72
2022/05/24 08:29:24;;;;;;;2.20;2.10;;;;;;;;;;10464986;28;20210;-71
2022/05/24 08:34:25;;;;;;;2.00;1.90;;;;;;;;;;10463452;28;20244;-72
2022/05/24 08:39:26;;;;;;;1.83;1.83;;;;;;;;;;10463582;28;20901;-70
2022/05/24 08:49:55;;;;;;;2.15;2.05;;;;;;;;;;10467981;28;20281;-72
2022/05/24 08:54:58;;;;;;;2.58;2.58;;;;;;;;;;10471035;28;20201;-72
2022/05/24 09:00:02;;;;;;;2.42;2.25;;;;;;;;;;10434986;28;20198;-73
2022/05/24 09:05:03;;;;;;;1.73;1.70;;;;;;;;;;10456425;28;20222;-76
2022/05/24 09:10:08;;;;;;;2.08;2.05;;;;;;;;;;10427673;28;20223;-76
2022/05/24 09:15:16;;;;;;;1.95;1.90;;;;;;;;;;10426110;28;20444;-77
2022/05/24 09:20:29;;;;;;;2.28;2.00;;;;;;;;;;10413354;28;20984;-76
2022/05/24 09:25:30;;;;;;;1.60;1.60;;;;;;;;;;10413374;28;20195;-77
2022/05/24 09:30:31;;;;;;;2.20;2.05;;;;;;;;;;10409569;28;20214;-75
2022/05/24 09:35:32;;;;;;;1.88;1.88;;;;;;;;;;10428714;28;20233;-77
2022/05/24 09:41:09;;;;;;;1.80;1.80;;;;;;;;;;10394677;28;20234;-76
2022/05/24 09:46:13;;;;;;;1.70;1.70;;;;;;;;;;10292862;28;20207;-76
2022/05/24 09:51:23;;;;;;;2.90;2.10;;;;;;;;;;10387778;28;20237;-75
2022/05/24 09:56:29;;;;;;;1.33;1.33;;;;;;;;;;10430411;28;20210;-76
2022/05/24 10:01:32;;;;;;;2.15;1.48;;;;;;;;;;10423443;28;20243;-75
2022/05/24 10:06:33;;;;;;;3.50;1.70;;;;;;;;;;10454724;28;20221;-75
2022/05/24 10:11:40;;;;;;;1.23;1.23;;;;;;;;;;10448345;28;20808;-75
2022/05/24 10:17:04;;;;;;;1.50;1.40;;;;;;;;;;10451588;28;20206;-75
2022/05/24 10:22:11;;;;;;;1.48;1.48;;;;;;;;;;10455854;28;20308;-75
2022/05/24 10:27:15;;;;;;;1.35;1.35;;;;;;;;;;10455627;28;20207;-74
2022/05/24 10:38:19;;;;;;;2.72;2.63;;;;;;;;;;10381423;28;20237;-77
2022/05/24 10:43:27;;;;;;;1.67;1.58;;;;;;;;;;10430459;28;20211;-76
2022/05/24 10:48:34;;;;;;;1.20;1.20;;;;;;;;;;10436662;28;20238;-78
2022/05/24 10:53:47;;;;;;;1.67;1.67;;;;;;;;;;10436387;28;20199;-76
2022/05/24 10:58:49;;;;;;;3.53;1.88;;;;;;;;;;10426089;28;20205;-75
2022/05/24 11:03:53;;;;;;;2.22;2.13;;;;;;;;;;10432339;28;20260;-75
2022/05/24 11:09:03;;;;;;;0.73;0.73;;;;;;;;;;10431910;28;20218;-77
2022/05/24 11:14:22;;;;;;;0.50;0.50;;;;;;;;;;10450902;28;20206;-77
2022/05/24 11:19:25;;;;;;;0.30;0.30;;;;;;;;;;10462191;28;20210;-76
2022/05/24 11:24:45;;;;;;;0.50;0.50;;;;;;;;;;10408841;28;20211;-76
2022/05/24 11:29:52;;;;;;;0.40;0.40;;;;;;;;;;10445240;28;20210;-76
2022/05/24 11:35:02;;;;;;;0.45;0.30;;;;;;;;;;10462338;28;20210;-75
2022/05/24 11:40:22;;;;;;;1.08;0.30;;;;;;;;;;10449095;28;20232;-75
2022/05/24 11:45:29;;;;;;;1.85;0.38;;;;;;;;;;10456555;28;20263;-76
2022/05/24 11:50:41;;;;;;;0.40;0.40;;;;;;;;;;10458839;28;20742;-77
2022/05/24 11:55:52;;;;;;;0.40;0.40;;;;;;;;;;10445357;28;20285;-76
2022/05/24 12:01:05;;;;;;;0.65;0.50;;;;;;;;;;10454000;28;20218;-76
2022/05/24 12:11:32;;;;;;;0.50;0.50;;;;;;;;;;10434488;28;20309;-75
2022/05/24 12:16:35;;;;;;;0.40;0.40;;;;;;;;;;10448374;28;20213;-77
2022/05/24 12:21:39;;;;;;;1.63;0.90;;;;;;;;;;10428686;28;20276;-76
2022/05/24 12:26:59;;;;;;;1.02;1.02;;;;;;;;;;10454480;28;20703;-76
2022/05/24 12:32:04;;;;;;;1.15;1.15;;;;;;;;;;10438198;28;20234;-76
2022/05/24 12:37:19;;;;;;;0.95;0.80;;;;;;;;;;10425868;28;20255;-77
2022/05/24 12:42:21;;;;;;;0.57;0.57;;;;;;;;;;10446009;28;20203;-76
2022/05/24 12:47:22;;;;;;;0.40;0.40;;;;;;;;;;10454347;28;20217;-77
2022/05/24 12:52:25;;;;;;;1.75;0.32;;;;;;;;;;10470545;28;20705;-77
2022/05/24 12:57:29;;;;;;;0.30;0.30;;;;;;;;;;10472819;28;20198;-77
2022/05/24 13:02:33;;;;;;;0.30;0.30;;;;;;;;;;10449174;28;20225;-75
2022/05/24 13:07:36;;;;;;;0.30;0.30;;;;;;;;;;10469116;28;20231;-77
2022/05/24 13:12:37;;;;;;;0.68;0.20;;;;;;;;;;10470569;28;20201;-77
2022/05/24 13:17:40;;;;;;;1.65;0.30;;;;;;;;;;10450163;28;20611;-77
2022/05/24 13:22:44;;;;;;;0.30;0.30;;;;;;;;;;10455286;28;20221;-77
2022/05/24 13:27:50;;;;;;;0.25;0.25;;;;;;;;;;10437168;28;20742;-76
2022/05/24 13:38:11;;;;;;;0.47;0.40;;;;;;;;;;10449294;28;20508;-75
2022/05/24 13:43:30;;;;;;;0.20;0.20;;;;;;;;;;10449252;28;20224;-79
2022/05/24 13:48:38;;;;;;;0.30;0.20;;;;;;;;;;10447954;28;20259;-76
2022/05/24 13:53:40;;;;;;;0.20;0.20;;;;;;;;;;10464855;28;20774;-77
2022/05/24 13:58:46;;;;;;;0.20;0.20;;;;;;;;;;10432973;28;20290;-77
2022/05/24 14:03:49;;;;;;;1.48;0.22;;;;;;;;;;10450008;28;20225;-77
2022/05/24 14:08:51;;;;;;;0.25;0.20;;;;;;;;;;10454177;28;20210;-77
2022/05/24 14:13:53;;;;;;;2.80;0.30;;;;;;;;;;10469001;28;20206;-77
2022/05/24 14:18:54;;;;;;;0.30;0.30;;;;;;;;;;10465141;28;20946;-76
2022/05/24 14:23:56;;;;;;;0.30;0.30;;;;;;;;;;10469829;28;20202;-77
2022/05/24 14:28:57;;;;;;;0.30;0.30;;;;;;;;;;10463601;28;20222;-77
2022/05/24 14:33:58;;;;;;;0.22;0.22;;;;;;;;;;10459047;28;20214;-77
2022/05/24 14:39:00;;;;;;;0.60;0.22;;;;;;;;;;10459466;28;20209;-77
2022/05/24 14:44:03;;;;;;;0.20;0.20;;;;;;;;;;10468189;28;20873;-77
2022/05/24 14:49:05;;;;;;;0.20;0.20;;;;;;;;;;10446303;28;21120;-77
2022/05/24 14:54:06;;;;;;;0.20;0.20;;;;;;;;;;10467808;28;20336;-77
2022/05/24 14:59:09;;;;;;;0.30;0.30;;;;;;;;;;10467846;28;20186;-77
2022/05/24 15:04:11;;;;;;;0.55;0.30;;;;;;;;;;10447928;28;20237;-77
2022/05/24 15:19:52;;;;;;;0.32;0.32;;;;;;;;;;10466224;28;20206;-76
2022/05/24 15:24:53;;;;;;;0.28;0.28;;;;;;;;;;10466193;28;20202;-77
2022/05/24 15:29:54;;;;;;;0.60;0.30;;;;;;;;;;10431061;28;20206;-77
2022/05/24 15:34:58;;;;;;;1.55;0.50;;;;;;;;;;10431536;28;20248;-75
2022/05/24 15:39:59;;;;;;;0.65;0.20;;;;;;;;;;10447575;28;20619;-76
2022/05/24 15:45:00;;;;;;;0.90;0.30;;;;;;;;;;10460193;28;20547;-76
2022/05/24 15:50:02;;;;;;;0.32;0.28;;;;;;;;;;10439102;28;20804;-76
2022/05/24 15:55:03;;;;;;;0.20;0.20;;;;;;;;;;10425140;28;20202;-76
2022/05/24 16:00:10;;;;;;;1.45;0.30;;;;;;;;;;10433151;28;20692;-76
2022/05/24 16:10:38;;;;;;;0.25;0.25;;;;;;;;;;10457797;28;20947;-76
2022/05/24 16:15:44;;;;;;;0.30;0.30;;;;;;;;;;10463709;28;20206;-77
2022/05/24 16:20:47;;;;;;;0.30;0.30;;;;;;;;;;10442714;28;20198;-77
2022/05/24 16:25:48;;;;;;;0.30;0.30;;;;;;;;;;10457123;28;20202;-77
2022/05/24 16:30:49;;;;;;;2.40;0.30;;;;;;;;;;10464467;28;20312;-76
2022/05/24 16:35:50;;;;;;;3.72;0.30;;;;;;;;;;10466094;28;20851;-75
2022/05/24 16:40:51;;;;;;;0.30;0.30;;;;;;;;;;10428938;28;20215;-76
2022/05/24 16:45:52;;;;;;;0.73;0.20;;;;;;;;;;10443094;28;20209;-76
2022/05/24 16:50:53;;;;;;;1.13;0.30;;;;;;;;;;10443761;28;20768;-76
2022/05/24 17:01:19;;;;;;;0.20;0.20;;;;;;;;;;10445620;28;20214;-77
2022/05/24 17:06:20;;;;;;;0.85;0.30;;;;;;;;;;10466781;28;20238;-76
2022/05/24 17:11:21;;;;;;;0.30;0.30;;;;;;;;;;10456196;28;20202;-77
2022/05/24 17:16:22;;;;;;;0.30;0.30;;;;;;;;;;10473998;28;20677;-76
2022/05/24 17:21:24;;;;;;;2.42;0.40;;;;;;;;;;10470826;28;20233;-76
2022/05/24 17:26:25;;;;;;;0.30;0.30;;;;;;;;;;10469313;28;20570;-76
2022/05/24 17:31:26;;;;;;;0.20;0.20;;;;;;;;;;10474567;28;20221;-76
2022/05/24 17:36:27;;;;;;;2.35;0.65;;;;;;;;;;10446187;28;20195;-76
2022/05/24 17:41:29;;;;;;;0.40;0.40;;;;;;;;;;10444471;28;20245;-77
2022/05/24 17:46:30;;;;;;;0.60;0.50;;;;;;;;;;10455665;28;20710;-76
2022/05/24 17:51:31;;;;;;;0.40;0.40;;;;;;;;;;10471640;28;20193;-76
2022/05/24 17:56:32;;;;;;;0.40;0.40;;;;;;;;;;10472693;28;20202;-75
2022/05/24 18:01:33;;;;;;;1.88;0.40;;;;;;;;;;10435194;28;20215;-76
2022/05/24 18:06:36;;;;;;;0.40;0.40;;;;;;;;;;10423627;28;20287;-76
2022/05/24 18:11:37;;;;;;;5.07;0.50;;;;;;;;;;10435363;28;20202;-76
2022/05/24 18:16:38;;;;;;;0.30;0.30;;;;;;;;;;10451066;28;20206;-75
2022/05/24 18:21:40;;;;;;;0.30;0.30;;;;;;;;;;10467930;28;20194;-75
2022/05/24 18:37:28;;;;;;;0.30;0.30;;;;;;;;;;10466113;28;20744;-74
2022/05/24 18:42:29;;;;;;;0.50;0.50;;;;;;;;;;10454860;28;20289;-74
2022/05/24 18:47:30;;;;;;;0.40;0.40;;;;;;;;;;10444884;28;20641;-74
2022/05/24 18:52:31;;;;;;;0.82;0.40;;;;;;;;;;10438686;28;20226;-75
2022/05/24 18:57:33;;;;;;;0.45;0.45;;;;;;;;;;10450019;28;20212;-75
2022/05/24 19:02:34;;;;;;;0.95;0.60;;;;;;;;;;10449699;28;20617;-72
2022/05/24 19:07:35;;;;;;;1.30;0.40;;;;;;;;;;10449230;28;20898;-72
2022/05/24 19:12:36;;;;;;;1.45;0.50;;;;;;;;;;10466478;28;20211;-72
2022/05/24 19:17:39;;;;;;;0.95;0.50;;;;;;;;;;10467560;28;20205;-72
2022/05/24 19:22:40;;;;;;;0.65;0.50;;;;;;;;;;10466330;28;20288;-72
2022/05/24 19:27:41;;;;;;;0.40;0.40;;;;;;;;;;10438577;28;20238;-72
2022/05/24 19:32:43;;;;;;;1.55;0.52;;;;;;;;;;10434820;28;20229;-72
2022/05/24 19:37:44;;;;;;;0.50;0.50;;;;;;;;;;10449937;28;20202;-71
2022/05/24 19:42:45;;;;;;;0.65;0.50;;;;;;;;;;10449235;28;20211;-72
2022/05/24 19:47:46;;;;;;;2.08;0.70;;;;;;;;;;10426455;28;20221;-71
2022/05/24 19:52:53;;;;;;;0.98;0.98;;;;;;;;;;10449315;28;20198;-71
2022/05/24 19:57:54;;;;;;;1.80;0.80;;;;;;;;;;10455120;28;20726;-72
2022/05/24 20:02:55;;;;;;;1.05;1.00;;;;;;;;;;10414240;28;20226;-71
2022/05/24 20:07:56;;;;;;;0.68;0.68;;;;;;;;;;10428374;28;20234;-71
2022/05/24 20:12:58;;;;;;;1.70;1.00;;;;;;;;;;10465928;28;20231;-72
2022/05/24 20:17:59;;;;;;;0.77;0.77;;;;;;;;;;10448175;28;20279;-72
2022/05/24 20:23:00;;;;;;;0.73;0.73;;;;;;;;;;10464537;28;20708;-71
2022/05/24 20:28:01;;;;;;;0.60;0.60;;;;;;;;;;10448476;28;20578;-73
2022/05/24 20:33:02;;;;;;;0.60;0.60;;;;;;;;;;10465087;28;20218;-72
2022/05/24 20:38:03;;;;;;;1.25;0.70;;;;;;;;;;10429323;28;20234;-71
2022/05/24 20:43:04;;;;;;;0.95;0.77;;;;;;;;;;10469297;28;20207;-71
2022/05/24 20:48:05;;;;;;;1.02;0.80;;;;;;;;;;10472145;28;20206;-72
2022/05/24 20:53:06;;;;;;;1.48;1.23;;;;;;;;;;10470954;28;20693;-72
2022/05/24 20:58:07;;;;;;;1.75;1.33;;;;;;;;;;10449303;28;20198;-71
2022/05/24 21:03:08;;;;;;;0.80;0.80;;;;;;;;;;10454899;28;20285;-73
2022/05/24 21:08:09;;;;;;;1.00;0.82;;;;;;;;;;10454213;28;20226;-71
2022/05/24 21:13:10;;;;;;;2.25;0.80;;;;;;;;;;10452240;28;20205;-72
2022/05/24 21:18:11;;;;;;;2.50;0.88;;;;;;;;;;10450566;28;20277;-71
2022/05/24 21:23:12;;;;;;;1.15;0.82;;;;;;;;;;10451423;28;20197;-71
2022/05/24 21:28:20;;;;;;;1.48;0.80;;;;;;;;;;10425146;28;20203;-71
2022/05/24 21:33:23;;;;;;;1.88;1.17;;;;;;;;;;10464453;28;20283;-70
2022/05/24 21:38:25;;;;;;;1.00;1.00;;;;;;;;;;10453735;28;20210;-72
2022/05/24 21:43:26;;;;;;;1.20;1.20;;;;;;;;;;10444443;28;20202;-70
2022/05/24 21:48:29;;;;;;;1.20;1.13;;;;;;;;;;10466714;28;20218;-73
2022/05/24 21:53:30;;;;;;;1.20;1.20;;;;;;;;;;10456049;28;20209;-75
2022/05/24 21:58:31;;;;;;;1.75;1.42;;;;;;;;;;10446727;28;20214;-72
2022/05/24 22:03:37;;;;;;;1.30;1.30;;;;;;;;;;10419163;28;20225;-73
2022/05/24 22:08:38;;;;;;;1.35;1.35;;;;;;;;;;10431793;28;20246;-74
2022/05/24 22:13:40;;;;;;;1.58;1.58;;;;;;;;;;10433627;28;20217;-72
2022/05/24 22:18:41;;;;;;;3.42;1.10;;;;;;;;;;10426103;28;20734;-72
2022/05/24 22:23:44;;;;;;;1.10;1.10;;;;;;;;;;10425219;28;20214;-72
2022/05/24 22:28:45;;;;;;;1.77;1.40;;;;;;;;;;10423411;28;20214;-71
2022/05/24 22:33:47;;;;;;;2.97;2.10;;;;;;;;;;10418565;28;20234;-71
2022/05/24 22:38:48;;;;;;;2.00;1.90;;;;;;;;;;10433608;28;20297;-71
2022/05/24 22:43:50;;;;;;;1.98;1.98;;;;;;;;;;10465057;28;20715;-71
2022/05/24 22:48:51;;;;;;;1.85;1.75;;;;;;;;;;10460092;28;20273;-71
2022/05/24 22:53:52;;;;;;;1.95;1.95;;;;;;;;;;10436889;28;20655;-72
2022/05/24 22:58:54;;;;;;;1.88;1.73;;;;;;;;;;10455367;28;20826;-70
2022/05/24 23:03:55;;;;;;;2.47;2.38;;;;;;;;;;10440143;28;20273;-71
2022/05/24 23:08:56;;;;;;;2.63;2.50;;;;;;;;;;10413067;28;20210;-71
2022/05/24 23:13:57;;;;;;;2.88;2.67;;;;;;;;;;10433470;28;20210;-72
2022/05/24 23:18:58;;;;;;;2.40;2.30;;;;;;;;;;10464647;28;20816;-71
2022/05/24 23:23:59;;;;;;;3.25;2.95;;;;;;;;;;10466344;28;20202;-71
2022/05/24 23:29:00;;;;;;;3.53;3.33;;;;;;;;;;10464367;28;20214;-71
2022/05/24 23:34:01;;;;;;;3.95;3.75;;;;;;;;;;10474647;28;20796;-70
2022/05/24 23:39:02;;;;;;;3.72;3.63;;;;;;;;;;10441034;28;20207;-71
2022/05/24 23:44:04;;;;;;;3.92;3.78;;;;;;;;;;10437296;28;20207;-71
2022/05/24 23:49:05;;;;;;;4.15;3.95;;;;;;;;;;10409694;28;20587;-70
2022/05/24 23:54:06;;;;;;;4.97;4.78;;;;;;;;;;10455588;28;20253;-71
2022/05/24 23:59:07;;;;;;;4.93;4.72;;;;;;;;;;10449433;28;20280;-73
